Time;durP1;ratioP1;P1;durP2;ratioP2;P2;SDS_P1;SDS_P2;PMS_P1;PMS_P2;Temp;Humidity;BMP_temperature;BMP_pressure;BME280_temperature;BME280_humidity;BME280_pressure;Samples;Min_cycle;Max_cycle;Signal;HPM_P1;HPM_P2
2023/08/17 00:01:01;;;;;;;4.65;2.00;;;17.80;99.90;;;17.24;100.00;101238.94;4150765;28;20046;-74
2023/08/17 00:03:02;;;;;;;3.35;2.08;;;17.80;99.90;;;17.19;100.00;101228.03;4147547;28;20045;-74
2023/08/17 00:05:03;;;;;;;5.25;2.17;;;17.70;99.90;;;17.25;100.00;101240.59;4151856;28;20026;-74
2023/08/17 00:07:05;;;;;;;3.03;1.73;;;17.80;99.90;;;17.20;100.00;101235.84;4150821;28;20037;-75
2023/08/17 00:09:06;;;;;;;3.15;2.22;;;17.70;99.90;;;17.13;100.00;101230.44;4151836;28;20486;-74
2023/08/17 00:11:07;;;;;;;5.63;2.33;;;17.70;99.90;;;17.11;100.00;101226.31;4150875;28;20037;-74
2023/08/17 00:13:08;;;;;;;4.45;1.83;;;17.60;99.90;;;17.13;100.00;101226.94;4151951;28;20018;-74
2023/08/17 00:15:09;;;;;;;4.70;1.80;;;17.60;99.90;;;17.10;100.00;101232.63;4151999;28;20030;-74
2023/08/17 00:17:10;;;;;;;2.72;1.60;;;17.60;99.90;;;17.08;100.00;101227.47;4151789;28;20018;-74
2023/08/17 00:19:11;;;;;;;4.65;2.38;;;17.60;99.90;;;17.06;100.00;101231.34;4152181;28;20030;-74
2023/08/17 00:21:12;;;;;;;4.75;1.88;;;17.60;99.90;;;17.04;100.00;101222.72;4151494;28;20034;-74
2023/08/17 00:23:13;;;;;;;4.10;1.80;;;17.60;99.90;;;17.01;100.00;101223.09;4151925;28;20026;-73
2023/08/17 00:25:14;;;;;;;5.53;2.22;;;17.60;99.90;;;16.98;100.00;101220.78;4150601;28;20025;-74
2023/08/17 00:27:15;;;;;;;4.68;1.98;;;17.50;99.90;;;16.94;100.00;101217.66;4150816;28;20073;-74
2023/08/17 00:29:17;;;;;;;4.60;2.00;;;17.50;99.90;;;16.95;100.00;101219.34;4153124;28;20022;-74
2023/08/17 00:31:17;;;;;;;3.70;1.63;;;17.50;99.90;;;16.96;100.00;101221.00;4154578;28;20104;-74
2023/08/17 00:33:18;;;;;;;5.43;1.65;;;17.50;99.90;;;16.97;100.00;101224.47;4154673;28;20443;-74
2023/08/17 00:35:20;;;;;;;3.28;1.73;;;17.50;99.90;;;16.95;100.00;101216.66;4141928;28;20032;-74
2023/08/17 00:37:21;;;;;;;4.63;2.30;;;17.40;99.90;;;16.94;100.00;101223.00;4154443;28;20136;-74
2023/08/17 00:39:21;;;;;;;5.18;1.92;;;17.40;99.90;;;16.93;100.00;101215.22;4154679;28;20080;-74
2023/08/17 00:41:22;;;;;;;4.55;2.13;;;17.40;99.90;;;16.96;100.00;101223.66;4153149;28;20544;-74
2023/08/17 00:43:23;;;;;;;4.28;2.00;;;17.40;99.90;;;16.98;100.00;101218.97;4146991;28;20033;-74
2023/08/17 00:45:24;;;;;;;3.80;2.00;;;17.40;99.90;;;16.91;100.00;101198.56;4154500;28;20022;-74
2023/08/17 00:47:26;;;;;;;2.55;1.48;;;17.40;99.90;;;17.04;100.00;101218.22;4154519;28;20026;-74
2023/08/17 00:49:26;;;;;;;3.03;2.00;;;17.50;99.90;;;17.08;100.00;101218.69;4153183;28;20410;-74
2023/08/17 00:51:28;;;;;;;3.47;2.05;;;17.50;99.90;;;17.12;100.00;101217.28;4154090;28;20044;-73
2023/08/17 00:53:30;;;;;;;4.20;1.85;;;17.60;99.90;;;17.15;100.00;101219.56;4153215;28;20113;-74
2023/08/17 00:55:33;;;;;;;3.60;1.67;;;17.60;99.90;;;17.20;100.00;101227.00;4154372;28;20034;-74
2023/08/17 00:57:35;;;;;;;3.47;1.73;;;17.60;99.90;;;17.24;100.00;101221.09;4153005;28;20070;-74
2023/08/17 00:59:36;;;;;;;5.47;2.20;;;17.70;99.90;;;17.28;100.00;101222.41;4153455;28;20097;-74
2023/08/17 01:01:37;;;;;;;5.72;2.15;;;17.70;99.90;;;17.31;100.00;101222.03;4153072;28;20026;-74
2023/08/17 01:03:43;;;;;;;4.88;2.15;;;17.80;99.90;;;17.34;100.00;101226.16;4151776;28;20030;-74
2023/08/17 01:05:44;;;;;;;6.07;2.25;;;17.80;99.90;;;17.32;100.00;101213.03;4152672;28;20048;-74
2023/08/17 01:07:45;;;;;;;3.45;1.85;;;17.80;99.90;;;17.30;100.00;101206.19;4143924;28;20026;-74
2023/08/17 01:09:45;;;;;;;4.13;2.00;;;17.80;99.90;;;17.30;100.00;101209.69;4154204;28;20481;-74
2023/08/17 01:12:28;;;;;;;6.13;2.35;;;17.80;99.90;;;17.29;100.00;101210.72;4153540;28;20026;-74
2023/08/17 01:15:12;;;;;;;6.60;2.45;;;17.80;99.90;;;17.26;100.00;101204.94;4146184;28;20033;-74
2023/08/17 01:17:31;;;;;;;4.90;2.20;;;17.70;99.90;;;17.21;100.00;101197.50;4133845;28;20108;-74
2023/08/17 01:19:33;;;;;;;4.45;1.98;;;17.70;99.90;;;17.21;100.00;101197.50;4152674;28;20026;-74
2023/08/17 01:21:49;;;;;;;4.55;2.20;;;17.70;99.90;;;17.20;100.00;101189.69;4153930;28;20030;-74
2023/08/17 01:23:51;;;;;;;4.65;2.03;;;17.70;99.90;;;17.20;100.00;101195.84;4142836;28;20114;-74
2023/08/17 01:25:53;;;;;;;4.35;1.90;;;17.70;99.90;;;17.15;100.00;101187.56;4152731;28;20510;-74
2023/08/17 01:27:54;;;;;;;4.22;2.58;;;17.70;99.90;;;17.15;100.00;101192.91;4153921;28;20367;-74
2023/08/17 01:29:55;;;;;;;5.15;2.33;;;17.60;99.90;;;17.08;100.00;101186.69;4153722;28;20052;-74
2023/08/17 01:32:17;;;;;;;5.72;2.22;;;17.60;99.90;;;17.06;100.00;101184.19;4152477;28;20056;-74
2023/08/17 01:34:23;;;;;;;3.65;2.47;;;17.60;99.90;;;17.00;100.00;101182.28;4145169;28;20034;-74
2023/08/17 01:36:39;;;;;;;6.47;2.20;;;17.50;99.90;;;16.98;100.00;101184.31;4150147;28;20038;-74
2023/08/17 01:38:42;;;;;;;4.55;2.40;;;17.50;99.90;;;16.93;100.00;101180.56;4152627;28;20041;-74
2023/08/17 01:40:44;;;;;;;7.70;2.37;;;17.50;99.90;;;16.89;100.00;101168.63;4151542;28;20026;-74
2023/08/17 01:42:46;;;;;;;5.60;2.70;;;17.40;99.90;;;16.89;100.00;101181.94;4152432;28;20026;-74
2023/08/17 01:44:47;;;;;;;6.32;2.08;;;17.40;99.90;;;16.84;100.00;101176.34;4152414;28;20033;-74
2023/08/17 01:46:49;;;;;;;4.72;2.45;;;17.40;99.90;;;16.84;100.00;101171.03;4153556;28;20025;-74
2023/08/17 01:48:49;;;;;;;5.53;2.70;;;17.40;99.90;;;16.82;100.00;101171.19;4136174;28;20030;-74
2023/08/17 01:50:50;;;;;;;6.18;2.60;;;17.30;99.90;;;16.77;100.00;101162.94;4153419;28;20025;-74
2023/08/17 01:52:51;;;;;;;9.45;3.63;;;17.30;99.90;;;16.74;100.00;101165.13;4153398;28;20394;-74
2023/08/17 01:54:52;;;;;;;7.80;2.80;;;17.30;99.90;;;16.69;100.00;101164.88;4153513;28;20022;-74
2023/08/17 01:56:53;;;;;;;5.47;2.72;;;17.20;99.90;;;16.65;100.00;101152.94;4152315;28;20571;-74
2023/08/17 01:58:54;;;;;;;6.10;2.63;;;17.20;99.90;;;16.62;100.00;101164.78;4135842;28;20426;-74
2023/08/17 02:00:54;;;;;;;5.32;2.80;;;17.20;99.90;;;16.59;100.00;101162.50;4153310;28;20033;-74
2023/08/17 02:02:55;;;;;;;5.85;2.60;;;17.10;99.90;;;16.56;100.00;101155.69;4153448;28;20030;-74
2023/08/17 02:04:56;;;;;;;3.75;2.70;;;17.10;99.90;;;16.53;100.00;101156.03;4153293;28;20026;-74
2023/08/17 02:06:57;;;;;;;3.65;2.67;;;17.10;99.90;;;16.54;100.00;101149.75;4152196;28;20018;-74
2023/08/17 02:08:59;;;;;;;7.13;3.00;;;17.10;99.90;;;16.54;100.00;101152.41;4153196;28;20528;-74
2023/08/17 02:11:00;;;;;;;4.80;2.50;;;17.10;99.90;;;16.52;100.00;101145.56;4153174;28;20026;-74
2023/08/17 02:13:00;;;;;;;6.25;2.42;;;17.10;99.90;;;16.61;100.00;101154.34;4153176;28;20030;-74
2023/08/17 02:15:01;;;;;;;5.00;2.65;;;17.10;99.90;;;16.62;100.00;101147.97;4153143;28;20030;-74
2023/08/17 02:17:02;;;;;;;4.88;2.70;;;17.20;99.90;;;16.66;100.00;101160.75;4145107;28;20375;-74
2023/08/17 02:19:03;;;;;;;9.65;3.88;;;17.20;99.90;;;16.69;100.00;101159.56;4150888;28;20022;-74
2023/08/17 02:21:04;;;;;;;4.93;3.08;;;17.20;99.90;;;16.71;100.00;101152.19;4152788;28;20072;-73
2023/08/17 02:23:05;;;;;;;5.60;3.00;;;17.30;99.90;;;16.72;100.00;101143.19;4153021;28;20091;-74
2023/08/17 02:25:07;;;;;;;6.70;3.38;;;17.30;99.90;;;16.73;100.00;101147.50;4152941;28;20038;-74
2023/08/17 02:27:09;;;;;;;4.68;2.58;;;17.30;99.90;;;16.73;100.00;101148.31;4152892;28;20103;-73
2023/08/17 02:29:10;;;;;;;7.13;2.63;;;17.20;99.90;;;16.70;100.00;101147.88;4153002;28;20440;-74
2023/08/17 02:31:11;;;;;;;4.53;2.58;;;17.30;99.90;;;16.68;100.00;101142.75;4151953;28;20026;-74
2023/08/17 02:33:12;;;;;;;5.28;2.40;;;17.30;99.90;;;16.69;100.00;101155.06;4140020;28;20506;-74
2023/08/17 02:35:13;;;;;;;6.75;3.17;;;17.20;99.90;;;16.63;100.00;101144.31;4149475;28;20014;-74
2023/08/17 02:37:13;;;;;;;9.30;3.00;;;17.20;99.90;;;16.64;100.00;101149.44;4151466;28;20062;-73
2023/08/17 02:39:14;;;;;;;4.20;2.38;;;17.20;99.90;;;16.62;100.00;101145.31;4151755;28;20025;-74
2023/08/17 02:41:15;;;;;;;6.60;2.72;;;17.10;99.90;;;16.57;100.00;101146.72;4123701;28;20038;-74
2023/08/17 02:43:16;;;;;;;3.88;2.60;;;17.10;99.90;;;16.56;100.00;101146.88;4149934;28;20030;-74
2023/08/17 02:45:17;;;;;;;6.30;3.25;;;17.10;99.90;;;16.52;100.00;101146.38;4152847;28;20481;-74
2023/08/17 02:47:18;;;;;;;4.43;2.58;;;17.10;99.90;;;16.49;100.00;101141.44;4151439;28;20169;-74
2023/08/17 02:49:20;;;;;;;5.15;2.78;;;17.10;99.90;;;16.51;100.00;101146.59;4152708;28;20033;-73
2023/08/17 02:51:21;;;;;;;6.40;2.80;;;17.00;99.90;;;16.47;100.00;101140.81;4150991;28;20049;-74
2023/08/17 02:53:22;;;;;;;4.40;3.10;;;17.00;99.90;;;16.48;100.00;101139.81;4151522;28;20499;-74
2023/08/17 02:55:22;;;;;;;4.82;2.33;;;17.00;99.90;;;16.44;100.00;101141.16;4152593;28;20029;-73
2023/08/17 02:57:24;;;;;;;6.35;2.97;;;17.00;99.90;;;16.40;100.00;101131.06;4151437;28;20504;-74
2023/08/17 02:59:25;;;;;;;5.72;3.20;;;17.00;99.90;;;16.46;100.00;101132.97;4151245;28;20030;-74
2023/08/17 03:01:26;;;;;;;5.72;2.63;;;17.00;99.90;;;16.44;100.00;101130.50;4151456;28;20033;-74
2023/08/17 03:03:27;;;;;;;6.13;2.75;;;17.00;99.90;;;16.43;100.00;101128.84;4152560;28;20113;-74
2023/08/17 03:05:27;;;;;;;5.28;2.35;;;17.00;99.90;;;16.41;100.00;101127.38;4147611;28;20022;-74
2023/08/17 03:07:28;;;;;;;3.63;2.45;;;17.00;99.90;;;16.39;100.00;101130.25;4150393;28;20025;-74
2023/08/17 03:09:29;;;;;;;5.35;2.50;;;17.00;99.90;;;16.35;100.00;101130.78;4151253;28;20505;-74
2023/08/17 03:11:30;;;;;;;4.57;2.33;;;17.00;99.90;;;16.32;100.00;101124.00;4152618;28;20021;-74
2023/08/17 03:13:31;;;;;;;4.25;2.60;;;16.90;99.90;;;16.33;100.00;101128.31;4134848;28;20502;-74
2023/08/17 03:15:32;;;;;;;5.18;2.28;;;16.90;99.90;;;16.30;100.00;101126.03;4152152;28;20029;-74
2023/08/17 03:17:32;;;;;;;4.20;2.70;;;16.80;99.90;;;16.25;100.00;101122.25;4152385;28;20048;-74
2023/08/17 03:19:33;;;;;;;4.57;2.25;;;16.80;99.90;;;16.22;100.00;101118.13;4150980;28;20026;-74
2023/08/17 03:21:34;;;;;;;6.07;2.78;;;16.80;99.90;;;16.24;100.00;101129.44;4151198;28;20022;-74
2023/08/17 03:23:35;;;;;;;4.65;2.70;;;16.70;99.90;;;16.23;100.00;101132.25;4152210;28;20029;-74
2023/08/17 03:25:37;;;;;;;5.53;3.75;;;16.80;99.90;;;16.23;100.00;101133.09;4152381;28;20025;-74
2023/08/17 03:27:38;;;;;;;9.85;2.72;;;16.70;99.90;;;16.18;100.00;101119.50;4152352;28;20022;-74
2023/08/17 03:29:39;;;;;;;6.28;2.83;;;16.70;99.90;;;16.24;100.00;101131.25;4151040;28;20037;-74
2023/08/17 03:31:40;;;;;;;5.10;2.58;;;16.70;99.90;;;16.22;100.00;101128.75;4152394;28;20026;-74
2023/08/17 03:33:40;;;;;;;6.05;2.63;;;16.70;99.90;;;16.21;100.00;101124.47;4151151;28;20049;-74
2023/08/17 03:35:41;;;;;;;10.65;2.67;;;16.70;99.90;;;16.22;100.00;101126.09;4150210;28;20029;-74
2023/08/17 03:37:42;;;;;;;4.65;2.80;;;16.80;99.90;;;16.27;100.00;101129.06;4151150;28;20517;-74
2023/08/17 03:39:43;;;;;;;4.63;2.60;;;16.80;99.90;;;16.27;100.00;101121.06;4152246;28;20026;-74
2023/08/17 03:41:44;;;;;;;3.75;2.50;;;16.80;99.90;;;16.26;100.00;101122.06;4151947;28;20060;-74
2023/08/17 03:43:45;;;;;;;5.82;2.70;;;16.80;99.90;;;16.27;100.00;101113.09;4151034;28;20034;-74
2023/08/17 03:45:46;;;;;;;6.03;2.42;;;16.80;99.90;;;16.26;100.00;101122.06;4150862;28;20092;-74
2023/08/17 03:47:47;;;;;;;3.75;2.35;;;16.80;99.90;;;16.25;100.00;101114.25;4146098;28;20486;-74
2023/08/17 03:49:48;;;;;;;5.97;2.67;;;16.80;99.90;;;16.28;100.00;101117.38;4149127;28;20060;-74
2023/08/17 03:51:49;;;;;;;4.53;2.75;;;16.80;99.90;;;16.31;100.00;101125.00;4134563;28;20485;-74
2023/08/17 03:53:49;;;;;;;5.35;2.60;;;16.80;99.90;;;16.37;100.00;101123.44;4152073;28;20061;-74
2023/08/17 03:55:51;;;;;;;4.00;2.60;;;16.90;99.90;;;16.41;100.00;101114.91;4152186;28;20026;-74
2023/08/17 03:57:52;;;;;;;6.65;2.53;;;16.90;99.90;;;16.44;100.00;101119.88;4150676;28;20030;-74
2023/08/17 03:59:53;;;;;;;4.55;2.28;;;16.90;99.90;;;16.48;100.00;101118.50;4152323;28;20033;-74
2023/08/17 04:01:54;;;;;;;5.85;2.72;;;17.00;99.90;;;16.51;100.00;101115.47;4150711;28;20076;-74
2023/08/17 04:03:54;;;;;;;3.65;2.30;;;17.00;99.90;;;16.49;100.00;101113.97;4154323;28;20026;-74
2023/08/17 04:05:55;;;;;;;5.15;2.47;;;17.00;99.90;;;16.54;100.00;101125.78;4155036;28;20464;-74
2023/08/17 04:08:01;;;;;;;3.60;2.60;;;17.10;99.90;;;16.54;100.00;101109.78;4155166;28;20029;-74
2023/08/17 04:10:03;;;;;;;5.53;2.38;;;17.10;99.90;;;16.58;100.00;101120.88;4155205;28;20029;-74
2023/08/17 04:12:05;;;;;;;4.32;2.53;;;17.10;99.90;;;16.57;100.00;101117.41;4153860;28;20026;-73
2023/08/17 04:14:08;;;;;;;3.90;2.50;;;17.10;99.90;;;16.58;100.00;101116.38;4153780;28;20029;-74
2023/08/17 04:16:09;;;;;;;4.72;2.42;;;17.10;99.90;;;16.57;100.00;101112.09;4155173;28;20497;-74
2023/08/17 04:18:10;;;;;;;3.08;2.13;;;17.10;99.90;;;16.57;100.00;101111.25;4153877;28;20036;-74
2023/08/17 04:20:11;;;;;;;4.03;2.55;;;17.10;99.90;;;16.54;100.00;101116.97;4154868;28;20022;-74
2023/08/17 04:22:12;;;;;;;4.38;2.60;;;17.10;99.90;;;16.52;100.00;101108.28;4153510;28;20034;-74
2023/08/17 04:24:13;;;;;;;3.45;2.58;;;17.10;99.90;;;16.44;100.00;101098.56;4153610;28;20029;-74
2023/08/17 04:26:14;;;;;;;3.95;1.92;;;17.00;99.90;;;16.44;100.00;101098.56;4154912;28;20026;-74
2023/08/17 04:28:15;;;;;;;3.80;2.10;;;17.00;99.90;;;16.41;100.00;101101.59;4155098;28;20014;-74
2023/08/17 04:30:16;;;;;;;3.72;2.60;;;17.00;99.90;;;16.38;100.00;101107.28;4140094;28;20049;-74
2023/08/17 04:32:16;;;;;;;5.38;2.53;;;16.90;99.90;;;16.34;100.00;101113.16;4155045;28;20033;-74
2023/08/17 04:34:17;;;;;;;7.10;2.70;;;16.90;99.90;;;16.28;100.00;101108.56;4154549;28;20034;-74
2023/08/17 04:36:18;;;;;;;4.60;2.45;;;16.80;99.90;;;16.24;100.00;101107.28;4152377;28;20537;-74
2023/08/17 04:38:19;;;;;;;2.28;2.08;;;16.80;99.90;;;16.18;100.00;101103.53;4150846;28;20037;-74
2023/08/17 04:40:20;;;;;;;3.00;2.45;;;16.70;99.90;;;16.14;100.00;101102.25;4154762;28;20036;-74
2023/08/17 04:42:21;;;;;;;6.72;2.40;;;16.70;99.90;;;16.05;100.00;101095.34;4154549;28;20112;-74
2023/08/17 04:44:21;;;;;;;5.60;2.60;;;16.60;99.90;;;16.05;100.00;101095.34;4153394;28;20029;-74
2023/08/17 04:46:22;;;;;;;5.15;2.85;;;16.60;99.90;;;15.98;100.00;101091.75;4154317;28;20481;-74
2023/08/17 04:48:23;;;;;;;8.30;2.78;;;16.60;99.90;;;15.98;100.00;101102.41;4153430;28;20421;-73
2023/08/17 04:50:24;;;;;;;3.88;2.38;;;16.50;99.90;;;15.93;100.00;101089.66;4154303;28;20025;-74
2023/08/17 04:52:25;;;;;;;4.45;2.60;;;16.50;99.90;;;15.92;100.00;101100.47;4154460;28;20026;-74
2023/08/17 04:54:25;;;;;;;9.68;3.40;;;16.50;99.90;;;15.89;100.00;101098.16;4154352;28;20034;-74
2023/08/17 04:56:27;;;;;;;4.65;2.80;;;16.50;99.90;;;15.87;100.00;101106.34;4154484;28;20030;-73
2023/08/17 04:58:28;;;;;;;4.57;2.92;;;16.40;99.90;;;15.80;100.00;101100.09;4154348;28;20030;-74
2023/08/17 05:00:30;;;;;;;3.75;2.70;;;16.40;99.90;;;15.79;100.00;101094.97;4149689;28;20037;-73
2023/08/17 05:02:31;;;;;;;5.50;2.63;;;16.30;99.90;;;15.76;100.00;101098.00;4136591;28;20089;-74
2023/08/17 05:04:32;;;;;;;3.22;2.50;;;16.30;99.90;;;15.76;100.00;101103.31;4152858;28;20509;-73
2023/08/17 05:06:33;;;;;;;3.67;2.33;;;16.30;99.90;;;15.71;100.00;101098.50;4152976;28;20104;-74
2023/08/17 05:08:33;;;;;;;3.72;2.58;;;16.30;99.90;;;15.74;100.00;101113.31;4154388;28;20026;-74
2023/08/17 05:10:34;;;;;;;6.20;3.10;;;16.30;99.90;;;15.70;100.00;101099.53;4152947;28;20030;-74
2023/08/17 05:12:35;;;;;;;4.28;2.97;;;16.30;99.90;;;15.74;100.00;101110.66;4153077;28;20033;-73
2023/08/17 05:14:36;;;;;;;5.82;3.50;;;16.30;99.90;;;15.67;100.00;101083.13;4136699;28;20038;-73
2023/08/17 05:16:37;;;;;;;4.97;2.50;;;16.30;99.90;;;15.84;100.00;101100.56;4154025;28;20034;-74
2023/08/17 05:18:38;;;;;;;4.10;2.53;;;16.40;99.90;;;15.90;100.00;101100.66;4136716;28;20514;-73
2023/08/17 05:20:39;;;;;;;4.75;2.58;;;16.40;99.90;;;15.97;100.00;101111.41;4153795;28;20030;-73
2023/08/17 05:22:40;;;;;;;4.15;2.85;;;16.50;99.90;;;15.93;100.00;101094.97;4154076;28;20092;-73
2023/08/17 05:24:41;;;;;;;6.05;2.72;;;16.50;99.90;;;15.97;100.00;101101.59;4152650;28;20025;-73
2023/08/17 05:26:42;;;;;;;4.47;2.72;;;16.50;99.90;;;15.97;100.00;101101.59;4154127;28;20088;-73
2023/08/17 05:28:44;;;;;;;5.45;2.70;;;16.50;99.90;;;15.95;100.00;101098.28;4153815;28;20022;-73
2023/08/17 05:30:47;;;;;;;3.95;2.65;;;16.50;99.90;;;15.97;100.00;101101.59;4152850;28;20049;-73
2023/08/17 05:32:47;;;;;;;5.43;2.90;;;16.50;99.90;;;15.96;100.00;101109.75;4153824;28;20371;-74
2023/08/17 05:34:48;;;;;;;4.18;2.58;;;16.50;99.90;;;15.96;100.00;101115.91;4152956;28;20053;-73
2023/08/17 05:36:49;;;;;;;6.10;2.75;;;16.50;99.90;;;15.99;100.00;101112.03;4153438;28;20050;-74
2023/08/17 05:38:50;;;;;;;2.97;2.50;;;16.50;99.90;;;16.00;100.00;101105.72;4153733;28;20041;-74
2023/08/17 05:40:56;;;;;;;3.80;2.28;;;16.50;99.90;;;16.11;100.00;101107.09;4152461;28;20029;-74
2023/08/17 05:42:57;;;;;;;4.93;2.50;;;16.60;99.90;;;16.21;100.00;101108.50;4153725;28;20026;-73
2023/08/17 05:44:58;;;;;;;6.88;3.03;;;16.70;99.90;;;16.34;100.00;101105.16;4153479;28;20032;-74
2023/08/17 05:46:59;;;;;;;4.03;2.70;;;16.80;99.90;;;16.48;100.00;101099.84;4153504;28;20026;-74
2023/08/17 05:49:02;;;;;;;5.78;2.03;;;16.90;99.90;;;16.63;100.00;101099.84;4153751;28;20108;-73
2023/08/17 05:51:03;;;;;;;6.10;3.07;;;17.10;99.90;;;16.78;100.00;101099.81;4152152;28;20036;-74
2023/08/17 05:53:03;;;;;;;4.85;2.30;;;17.20;99.90;;;16.88;100.00;101101.16;4136084;28;20070;-73
2023/08/17 05:55:05;;;;;;;4.35;2.28;;;17.30;99.90;;;16.93;100.00;101097.94;4152370;28;20053;-74
2023/08/17 05:57:07;;;;;;;2.90;1.90;;;17.40;99.90;;;17.00;100.00;101098.81;4152258;28;20026;-74
2023/08/17 05:59:08;;;;;;;3.33;2.20;;;17.50;99.90;;;17.03;100.00;101099.28;4146337;28;20033;-74
2023/08/17 06:01:11;;;;;;;5.47;2.30;;;17.50;99.90;;;17.03;100.00;101093.94;4151478;28;20059;-74
2023/08/17 06:03:12;;;;;;;3.13;2.00;;;17.60;99.90;;;17.03;100.00;101093.13;4153598;28;20022;-74
2023/08/17 06:05:13;;;;;;;4.22;2.10;;;17.60;99.90;;;17.09;100.00;101097.69;4151452;28;20034;-74
2023/08/17 06:07:14;;;;;;;2.97;1.70;;;17.60;99.90;;;17.13;100.00;101099.81;4153314;28;20029;-74
2023/08/17 06:09:15;;;;;;;3.45;2.55;;;17.60;99.90;;;17.17;100.00;101094.94;4153193;28;20030;-74
2023/08/17 06:11:16;;;;;;;4.15;2.42;;;17.70;99.90;;;17.23;100.00;101094.16;4153302;28;20029;-74
2023/08/17 06:13:17;;;;;;;5.72;2.35;;;17.70;99.90;;;17.22;100.00;101091.66;4152285;28;20022;-74
2023/08/17 06:15:17;;;;;;;3.47;2.08;;;17.70;99.90;;;17.25;100.00;101093.97;4126862;28;20023;-74
2023/08/17 06:17:18;;;;;;;3.72;2.33;;;17.70;99.90;;;17.28;100.00;101094.41;4150511;28;20033;-74
2023/08/17 06:19:19;;;;;;;3.25;1.92;;;17.70;99.90;;;17.28;100.00;101091.75;4152950;28;20022;-74
2023/08/17 06:21:20;;;;;;;2.45;1.77;;;17.70;99.90;;;17.32;100.00;101097.53;4153084;28;20033;-74
2023/08/17 06:23:21;;;;;;;4.15;2.90;;;17.80;99.90;;;17.37;100.00;101095.09;4153070;28;20026;-73
2023/08/17 06:25:22;;;;;;;3.58;2.13;;;17.80;99.90;;;17.41;100.00;101089.19;4151496;28;20033;-74
2023/08/17 06:27:22;;;;;;;3.55;1.90;;;17.90;99.90;;;17.53;100.00;101095.63;4151521;28;20033;-73
2023/08/17 06:29:23;;;;;;;5.07;2.33;;;18.00;99.90;;;17.62;100.00;101091.84;4152920;28;20033;-73
2023/08/17 06:31:27;;;;;;;3.85;2.22;;;18.10;99.90;;;17.77;100.00;101096.28;4151728;28;20026;-74
2023/08/17 06:33:28;;;;;;;4.28;1.58;;;18.20;99.90;;;17.89;100.00;101098.22;4151816;28;20084;-74
2023/08/17 06:35:29;;;;;;;3.92;1.77;;;18.30;99.90;;;17.98;100.00;101097.03;4151974;28;20021;-74
2023/08/17 06:37:29;;;;;;;3.33;2.00;;;18.40;99.90;;;18.15;100.00;101098.41;4135364;28;20046;-74
2023/08/17 06:39:30;;;;;;;2.10;1.40;;;18.60;99.90;;;18.32;100.00;101098.06;4136644;28;20019;-74
2023/08/17 06:41:31;;;;;;;5.55;1.92;;;18.70;99.90;;;18.36;100.00;101097.47;4136315;28;20493;-74
2023/08/17 06:43:32;;;;;;;3.53;2.10;;;18.80;99.90;;;18.48;100.00;101087.06;4135466;28;20090;-74
2023/08/17 06:45:35;;;;;;;4.72;2.15;;;18.90;99.90;;;18.55;100.00;101096.75;4133668;28;20034;-74
2023/08/17 06:47:36;;;;;;;3.88;1.92;;;19.00;99.90;;;18.61;100.00;101089.78;4136352;28;20018;-74
2023/08/17 06:49:36;;;;;;;3.92;1.80;;;19.00;99.90;;;18.75;100.00;101092.34;4134887;28;20081;-74
2023/08/17 06:51:38;;;;;;;5.40;2.30;;;19.10;99.90;;;18.85;100.00;101094.59;4127565;28;20033;-74
2023/08/17 06:53:39;;;;;;;3.38;2.10;;;19.20;99.90;;;18.90;100.00;101088.69;4136267;28;20040;-74
2023/08/17 06:55:40;;;;;;;3.55;1.80;;;19.30;99.90;;;18.97;100.00;101092.16;4131252;28;20498;-75
2023/08/17 06:57:41;;;;;;;3.72;2.28;;;19.40;99.90;;;19.12;100.00;101085.63;4132041;28;20038;-75
2023/08/17 06:59:41;;;;;;;3.47;2.00;;;19.50;99.90;;;19.14;100.00;101082.75;4135327;28;20117;-74
2023/08/17 07:01:42;;;;;;;3.60;1.40;;;19.60;99.90;;;19.18;100.00;101086.66;4129415;28;20031;-74
2023/08/17 07:03:43;;;;;;;4.43;2.08;;;19.60;99.90;;;19.07;100.00;101084.59;4136476;28;20026;-74
2023/08/17 07:05:44;;;;;;;5.20;2.10;;;19.60;99.90;;;18.97;100.00;101084.97;4136184;28;20022;-74
2023/08/17 07:07:45;;;;;;;2.08;1.85;;;19.50;99.90;;;18.92;100.00;101086.59;4136132;28;20023;-74
2023/08/17 07:09:46;;;;;;;3.78;2.72;;;19.40;99.90;;;18.93;100.00;101099.78;4135270;28;20034;-74
2023/08/17 07:11:47;;;;;;;6.63;2.75;;;19.40;99.90;;;18.98;100.00;101100.00;4136159;28;20018;-74
2023/08/17 07:13:48;;;;;;;4.18;2.03;;;19.40;99.90;;;19.19;100.00;101085.63;4136312;28;20034;-73
2023/08/17 07:15:48;;;;;;;3.85;1.33;;;19.60;99.90;;;19.57;100.00;101086.72;4134927;28;20077;-74
2023/08/17 07:17:49;;;;;;;3.60;1.60;;;19.80;99.90;;;19.62;100.00;101078.88;4135194;28;20034;-74
2023/08/17 07:19:50;;;;;;;5.38;2.35;;;19.90;99.90;;;19.65;100.00;101089.19;4134768;28;20027;-74
2023/08/17 07:21:51;;;;;;;3.55;2.10;;;20.00;99.90;;;19.48;100.00;101101.34;4135954;28;20035;-74
2023/08/17 07:23:55;;;;;;;3.95;2.30;;;20.00;99.90;;;19.36;100.00;101089.56;4135975;28;20026;-74
2023/08/17 07:25:56;;;;;;;3.33;2.10;;;19.90;99.90;;;19.25;100.00;101079.47;4136165;28;20061;-74
2023/08/17 07:27:57;;;;;;;5.38;2.60;;;19.80;99.90;;;19.23;100.00;101092.25;4135076;28;20034;-74
2023/08/17 07:29:57;;;;;;;2.92;1.95;;;19.80;99.90;;;19.14;100.00;101080.91;4129389;28;20026;-74
2023/08/17 07:32:01;;;;;;;3.30;2.00;;;19.70;99.90;;;19.09;100.00;101082.53;4134704;28;20497;-74
2023/08/17 07:34:02;;;;;;;3.90;2.20;;;19.70;99.90;;;19.12;100.00;101087.47;4134966;28;20094;-74
2023/08/17 07:36:04;;;;;;;5.65;3.25;;;19.70;99.90;;;19.18;100.00;101086.66;4138097;28;20037;-74
2023/08/17 07:38:05;;;;;;;6.40;2.85;;;19.70;99.90;;;19.21;100.00;101080.91;4153217;28;20057;-74
2023/08/17 07:40:07;;;;;;;7.07;2.70;;;19.70;99.90;;;19.29;100.00;101083.41;4154453;28;20060;-74
2023/08/17 07:42:08;;;;;;;4.47;2.95;;;19.70;99.90;;;19.31;100.00;101073.31;4129185;28;20038;-74
2023/08/17 07:44:09;;;;;;;2.45;2.00;;;19.80;99.90;;;19.38;100.00;101070.66;4155499;28;20050;-74
2023/08/17 07:46:10;;;;;;;3.75;2.35;;;19.80;99.90;;;19.45;100.00;101072.31;4154294;28;20417;-73
2023/08/17 07:48:11;;;;;;;2.85;2.05;;;19.90;99.90;;;19.62;100.00;101083.44;4162000;28;20029;-74
2023/08/17 07:50:11;;;;;;;3.33;1.88;;;20.00;99.90;;;19.88;100.00;101080.72;4155303;28;20110;-74
2023/08/17 07:52:12;;;;;;;4.20;2.40;;;20.20;99.90;;;20.23;100.00;101083.94;4149142;28;20034;-74
2023/08/17 07:54:13;;;;;;;5.47;3.13;;;20.40;99.90;;;20.57;100.00;101088.19;4154124;28;20510;-73
2023/08/17 07:56:14;;;;;;;5.10;2.47;;;20.70;99.90;;;20.94;100.00;101080.16;4154031;28;20072;-74
2023/08/17 07:58:15;;;;;;;6.70;2.17;;;21.10;99.90;;;21.27;100.00;101093.38;4155374;28;20030;-74
2023/08/17 08:00:16;;;;;;;2.47;1.90;;;21.40;99.90;;;21.53;100.00;101082.44;4155295;28;20037;-74
2023/08/17 08:02:17;;;;;;;2.45;1.80;;;21.70;99.90;;;21.68;100.00;101076.75;4155058;28;20049;-74
2023/08/17 08:04:18;;;;;;;1.85;1.50;;;21.90;99.90;;;21.75;100.00;101071.28;4153810;28;20018;-74
2023/08/17 08:06:20;;;;;;;2.95;2.00;;;22.00;99.90;;;21.71;100.00;101070.13;4155265;28;20032;-74
2023/08/17 08:08:21;;;;;;;3.55;2.05;;;22.10;99.90;;;21.62;100.00;101076.81;4153916;28;20097;-74
2023/08/17 08:10:22;;;;;;;2.78;2.05;;;22.10;99.90;;;21.49;100.00;101073.19;4155095;28;20473;-74
2023/08/17 08:12:23;;;;;;;5.13;1.98;;;22.00;99.90;;;21.41;100.00;101075.34;4155000;28;20030;-74
2023/08/17 08:14:24;;;;;;;5.05;2.30;;;21.90;99.90;;;21.29;100.00;101074.38;4155283;28;20038;-74
2023/08/17 08:16:24;;;;;;;6.75;2.33;;;21.80;99.90;;;21.42;100.00;101077.78;4153849;28;20577;-74
2023/08/17 08:18:25;;;;;;;2.58;2.00;;;21.70;99.90;;;21.51;100.00;101073.78;4154914;28;20038;-74
2023/08/17 08:20:26;;;;;;;2.90;1.73;;;21.80;99.90;;;21.60;100.00;101074.31;4154608;28;20041;-74